Decoded Metar for YAYE (AYERS ROCK in _UNIDENTIFIED) (IATA:N/A) | Meteo·Mobile Aviation Weather
aviador You're here:

YAYE Decoded Metar

AYERS ROCK in _UNIDENTIFIED
Report Time2018-09-22 10:00:00
UTC Time2018-09-22 10:43:39
Flight Rules vfr VFR
Wind120° at 06 kt
W.Decomp.*RWY 13: 5.8 kt HW 1.5 kt LCW
W.Rank120° ranks 6
Current wind is below 120° avg. (7.6)
Visibility9999 m
Phenomena:N/A
Clouds:N/A
Expected CloudBase > 7,600 ft AGL from Temp-Dew spread
CeilingNone
Temp23°C (ISA +11)
Dew Point04°C (29% RH)
AAT19.5°C
QNH1023 hPa
Density Alt2,710 ft
Elevation1,627 ft
Report Wrong Elevation
Raw Report
YAYE 221000Z AUTO 12006KT 9999 // NCD 23/04 Q1023=

Extra information for YAYE:More info

Metar Taf Metar & Taf Last 4 Metars F.Rules Stats Wind Profile Meteogram Temp Stats Airport Information Weather charts Add Link Nearby VenuesMetar ALERT Operation Metar Decoded Social comments